sensor_id;sensor_type;location;lat;lon;timestamp;pressure;altitude;pressure_sealevel;temperature;humidity
49044;BME280;34860;48.066;14.124;2023-05-27T00:00:11;97290.47;;;18.42;47.56
49044;BME280;34860;48.066;14.124;2023-05-27T00:03:00;97285.78;;;18.39;47.62
49044;BME280;34860;48.066;14.124;2023-05-27T00:05:49;97291.09;;;18.37;47.52
49044;BME280;34860;48.066;14.124;2023-05-27T00:08:40;97292.81;;;18.34;47.71
49044;BME280;34860;48.066;14.124;2023-05-27T00:11:33;97292.53;;;18.32;47.76
49044;BME280;34860;48.066;14.124;2023-05-27T00:14:21;97293.78;;;18.31;47.59
49044;BME280;34860;48.066;14.124;2023-05-27T00:17:18;97281.16;;;18.27;47.65
49044;BME280;34860;48.066;14.124;2023-05-27T00:20:12;97283.63;;;18.25;47.56
49044;BME280;34860;48.066;14.124;2023-05-27T00:23:08;97294.59;;;18.23;47.53
49044;BME280;34860;48.066;14.124;2023-05-27T00:26:01;97280.22;;;18.21;47.60
49044;BME280;34860;48.066;14.124;2023-05-27T00:28:53;97294.78;;;18.19;47.66
49044;BME280;34860;48.066;14.124;2023-05-27T00:31:46;97290.84;;;18.17;47.79
49044;BME280;34860;48.066;14.124;2023-05-27T00:34:38;97289.75;;;18.14;47.74
49044;BME280;34860;48.066;14.124;2023-05-27T00:37:29;97284.59;;;18.12;47.60
49044;BME280;34860;48.066;14.124;2023-05-27T00:40:21;97284.78;;;18.09;47.74
49044;BME280;34860;48.066;14.124;2023-05-27T00:43:15;97283.72;;;18.06;47.66
49044;BME280;34860;48.066;14.124;2023-05-27T00:46:09;97284.66;;;18.03;47.77
49044;BME280;34860;48.066;14.124;2023-05-27T00:48:57;97279.97;;;18.00;47.62
49044;BME280;34860;48.066;14.124;2023-05-27T00:51:48;97282.94;;;17.96;47.87
49044;BME280;34860;48.066;14.124;2023-05-27T00:54:41;97276.22;;;17.94;47.87
49044;BME280;34860;48.066;14.124;2023-05-27T00:57:34;97275.59;;;17.90;47.75
49044;BME280;34860;48.066;14.124;2023-05-27T01:00:29;97269.22;;;17.89;47.82
49044;BME280;34860;48.066;14.124;2023-05-27T01:03:18;97279.03;;;17.85;47.88
49044;BME280;34860;48.066;14.124;2023-05-27T01:06:15;97271.53;;;17.82;47.99
49044;BME280;34860;48.066;14.124;2023-05-27T01:09:11;97273.75;;;17.77;47.99
49044;BME280;34860;48.066;14.124;2023-05-27T01:12:08;97265.91;;;17.72;48.02
49044;BME280;34860;48.066;14.124;2023-05-27T01:15:00;97259.69;;;17.68;47.90
49044;BME280;34860;48.066;14.124;2023-05-27T01:17:56;97257.06;;;17.65;48.12
49044;BME280;34860;48.066;14.124;2023-05-27T01:20:48;97254.38;;;17.61;47.95
49044;BME280;34860;48.066;14.124;2023-05-27T01:23:41;97252.97;;;17.56;48.12
49044;BME280;34860;48.066;14.124;2023-05-27T01:26:31;97255.19;;;17.52;48.11
49044;BME280;34860;48.066;14.124;2023-05-27T01:29:19;97246.13;;;17.48;48.23
49044;BME280;34860;48.066;14.124;2023-05-27T01:32:12;97246.28;;;17.45;48.06
49044;BME280;34860;48.066;14.124;2023-05-27T01:35:09;97254.06;;;17.40;48.25
49044;BME280;34860;48.066;14.124;2023-05-27T01:38:10;97243.47;;;17.35;48.14
49044;BME280;34860;48.066;14.124;2023-05-27T01:41:01;97244.88;;;17.31;48.08
49044;BME280;34860;48.066;14.124;2023-05-27T01:43:54;97234.25;;;17.25;48.15
49044;BME280;34860;48.066;14.124;2023-05-27T01:46:43;97245.34;;;17.20;48.16
49044;BME280;34860;48.066;14.124;2023-05-27T01:49:33;97233.50;;;17.16;48.28
49044;BME280;34860;48.066;14.124;2023-05-27T01:52:22;97236.94;;;17.11;48.16
49044;BME280;34860;48.066;14.124;2023-05-27T01:55:10;97241.59;;;17.04;48.38
49044;BME280;34860;48.066;14.124;2023-05-27T01:58:04;97234.25;;;16.98;48.39
49044;BME280;34860;48.066;14.124;2023-05-27T02:00:54;97242.81;;;16.94;48.29
49044;BME280;34860;48.066;14.124;2023-05-27T02:03:48;97238.28;;;16.87;48.39
49044;BME280;34860;48.066;14.124;2023-05-27T02:06:38;97238.13;;;16.82;48.34
49044;BME280;34860;48.066;14.124;2023-05-27T02:09:27;97237.47;;;16.78;48.35
49044;BME280;34860;48.066;14.124;2023-05-27T02:12:15;97235.75;;;16.71;48.40
49044;BME280;34860;48.066;14.124;2023-05-27T02:15:05;97230.75;;;16.66;48.45
49044;BME280;34860;48.066;14.124;2023-05-27T02:17:54;97238.84;;;16.64;48.47
49044;BME280;34860;48.066;14.124;2023-05-27T02:20:47;97234.31;;;16.57;48.51
49044;BME280;34860;48.066;14.124;2023-05-27T02:23:35;97237.72;;;16.52;48.60
49044;BME280;34860;48.066;14.124;2023-05-27T02:26:30;97239.88;;;16.48;48.44
49044;BME280;34860;48.066;14.124;2023-05-27T02:29:21;97238.00;;;16.45;48.59
49044;BME280;34860;48.066;14.124;2023-05-27T02:32:11;97228.66;;;16.39;48.47
49044;BME280;34860;48.066;14.124;2023-05-27T02:35:02;97237.19;;;16.35;48.61
49044;BME280;34860;48.066;14.124;2023-05-27T02:37:51;97237.66;;;16.33;48.65
49044;BME280;34860;48.066;14.124;2023-05-27T02:40:41;97231.06;;;16.27;48.67
49044;BME280;34860;48.066;14.124;2023-05-27T02:43:35;97230.47;;;16.23;48.70
49044;BME280;34860;48.066;14.124;2023-05-27T02:46:28;97237.44;;;16.19;48.73
49044;BME280;34860;48.066;14.124;2023-05-27T02:49:19;97236.34;;;16.16;48.75
49044;BME280;34860;48.066;14.124;2023-05-27T02:52:09;97235.41;;;16.10;48.74
49044;BME280;34860;48.066;14.124;2023-05-27T02:55:01;97236.31;;;16.07;48.81
49044;BME280;34860;48.066;14.124;2023-05-27T02:57:52;97233.63;;;16.03;48.76
49044;BME280;34860;48.066;14.124;2023-05-27T03:00:40;97230.19;;;15.99;48.82
49044;BME280;34860;48.066;14.124;2023-05-27T03:03:28;97234.69;;;15.96;49.10
49044;BME280;34860;48.066;14.124;2023-05-27T03:06:19;97241.22;;;15.93;48.88
49044;BME280;34860;48.066;14.124;2023-05-27T03:09:07;97238.56;;;15.90;48.87
49044;BME280;34860;48.066;14.124;2023-05-27T03:11:57;97243.03;;;15.87;49.00
49044;BME280;34860;48.066;14.124;2023-05-27T03:14:52;97231.97;;;15.84;48.86
49044;BME280;34860;48.066;14.124;2023-05-27T03:17:40;97237.25;;;15.82;49.02
49044;BME280;34860;48.066;14.124;2023-05-27T03:20:29;97234.59;;;15.78;49.03
49044;BME280;34860;48.066;14.124;2023-05-27T03:23:19;97228.63;;;15.76;49.01
49044;BME280;34860;48.066;14.124;2023-05-27T03:26:09;97222.41;;;15.72;49.09
49044;BME280;34860;48.066;14.124;2023-05-27T03:28:59;97222.84;;;15.70;49.13
49044;BME280;34860;48.066;14.124;2023-05-27T03:31:55;97229.38;;;15.67;49.00
49044;BME280;34860;48.066;14.124;2023-05-27T03:34:44;97226.22;;;15.65;49.11
49044;BME280;34860;48.066;14.124;2023-05-27T03:37:38;97225.44;;;15.65;49.10
49044;BME280;34860;48.066;14.124;2023-05-27T03:40:32;97226.38;;;15.61;49.14
49044;BME280;34860;48.066;14.124;2023-05-27T03:43:27;97228.53;;;15.57;49.11
49044;BME280;34860;48.066;14.124;2023-05-27T03:46:15;97230.53;;;15.57;49.01
49044;BME280;34860;48.066;14.124;2023-05-27T03:49:06;97223.03;;;15.54;49.15
49044;BME280;34860;48.066;14.124;2023-05-27T03:52:00;97226.28;;;15.52;49.15
49044;BME280;34860;48.066;14.124;2023-05-27T03:54:50;97223.19;;;15.50;49.45
49044;BME280;34860;48.066;14.124;2023-05-27T03:57:41;97223.63;;;15.49;49.17
49044;BME280;34860;48.066;14.124;2023-05-27T04:00:30;97232.03;;;15.49;49.24
49044;BME280;34860;48.066;14.124;2023-05-27T04:03:19;97227.34;;;15.46;49.30
49044;BME280;34860;48.066;14.124;2023-05-27T04:06:09;97226.56;;;15.45;49.17
49044;BME280;34860;48.066;14.124;2023-05-27T04:08:58;97227.81;;;15.44;49.24
49044;BME280;34860;48.066;14.124;2023-05-27T04:11:49;97222.66;;;15.42;49.33
49044;BME280;34860;48.066;14.124;2023-05-27T04:14:49;97233.84;;;15.42;49.28
49044;BME280;34860;48.066;14.124;2023-05-27T04:17:38;97234.31;;;15.41;49.70
49044;BME280;34860;48.066;14.124;2023-05-27T04:20:34;97235.88;;;15.42;49.44
49044;BME280;34860;48.066;14.124;2023-05-27T04:23:28;97240.25;;;15.43;49.31
49044;BME280;34860;48.066;14.124;2023-05-27T04:26:17;97241.50;;;15.42;49.36
49044;BME280;34860;48.066;14.124;2023-05-27T04:29:12;97238.69;;;15.42;49.37
49044;BME280;34860;48.066;14.124;2023-05-27T04:32:07;97249.91;;;15.42;49.51
49044;BME280;34860;48.066;14.124;2023-05-27T04:35:00;97247.09;;;15.42;49.42
49044;BME280;34860;48.066;14.124;2023-05-27T04:37:56;97245.06;;;15.42;49.25
49044;BME280;34860;48.066;14.124;2023-05-27T04:40:59;97248.97;;;15.45;49.35
49044;BME280;34860;48.066;14.124;2023-05-27T04:44:08;97245.28;;;15.48;49.36
49044;BME280;34860;48.066;14.124;2023-05-27T04:47:03;97246.72;;;15.53;49.26
49044;BME280;34860;48.066;14.124;2023-05-27T04:50:00;97238.47;;;15.58;49.35
49044;BME280;34860;48.066;14.124;2023-05-27T04:52:50;97246.78;;;15.62;49.21
49044;BME280;34860;48.066;14.124;2023-05-27T04:55:42;97249.75;;;15.68;49.35
49044;BME280;34860;48.066;14.124;2023-05-27T04:58:35;97246.34;;;15.73;49.07
49044;BME280;34860;48.066;14.124;2023-05-27T05:01:26;97247.69;;;15.81;49.15
49044;BME280;34860;48.066;14.124;2023-05-27T05:04:28;97240.25;;;15.87;49.19
49044;BME280;34860;48.066;14.124;2023-05-27T05:07:22;97246.38;;;15.95;48.98
49044;BME280;34860;48.066;14.124;2023-05-27T05:10:14;97245.31;;;16.02;49.16
49044;BME280;34860;48.066;14.124;2023-05-27T05:13:08;97254.22;;;16.09;49.08
49044;BME280;34860;48.066;14.124;2023-05-27T05:15:59;97250.69;;;16.18;49.20
49044;BME280;34860;48.066;14.124;2023-05-27T05:18:54;97254.78;;;16.26;49.09
49044;BME280;34860;48.066;14.124;2023-05-27T05:21:47;97255.28;;;16.34;48.89
49044;BME280;34860;48.066;14.124;2023-05-27T05:24:42;97273.25;;;16.46;48.88
49044;BME280;34860;48.066;14.124;2023-05-27T05:27:32;97267.00;;;16.51;48.91
49044;BME280;34860;48.066;14.124;2023-05-27T05:30:26;97275.47;;;16.60;49.15
49044;BME280;34860;48.066;14.124;2023-05-27T05:33:15;97275.19;;;16.67;49.08
49044;BME280;34860;48.066;14.124;2023-05-27T05:36:06;97263.19;;;16.76;48.87
49044;BME280;34860;48.066;14.124;2023-05-27T05:39:07;97268.06;;;16.85;49.19
49044;BME280;34860;48.066;14.124;2023-05-27T05:42:08;97269.66;;;16.95;48.95
49044;BME280;34860;48.066;14.124;2023-05-27T05:45:01;97267.63;;;17.05;48.84
49044;BME280;34860;48.066;14.124;2023-05-27T05:47:50;97274.03;;;17.15;48.96
49044;BME280;34860;48.066;14.124;2023-05-27T05:50:48;97274.84;;;17.24;48.99
49044;BME280;34860;48.066;14.124;2023-05-27T05:53:36;97276.09;;;17.33;49.05
49044;BME280;34860;48.066;14.124;2023-05-27T05:56:31;97276.25;;;17.38;48.89
49044;BME280;34860;48.066;14.124;2023-05-27T05:59:21;97281.56;;;17.46;49.00
49044;BME280;34860;48.066;14.124;2023-05-27T06:02:15;97286.56;;;17.51;49.03
49044;BME280;34860;48.066;14.124;2023-05-27T06:05:07;97284.06;;;17.53;49.17
49044;BME280;34860;48.066;14.124;2023-05-27T06:07:57;97285.94;;;17.56;49.18
49044;BME280;34860;48.066;14.124;2023-05-27T06:10:45;97284.22;;;17.58;49.31
49044;BME280;34860;48.066;14.124;2023-05-27T06:13:44;97285.28;;;17.61;49.09
49044;BME280;34860;48.066;14.124;2023-05-27T06:16:39;97284.34;;;17.64;49.13
49044;BME280;34860;48.066;14.124;2023-05-27T06:19:32;97293.09;;;17.66;49.07
49044;BME280;34860;48.066;14.124;2023-05-27T06:22:20;97292.16;;;17.69;49.02
49044;BME280;34860;48.066;14.124;2023-05-27T06:25:49;97283.59;;;17.73;49.21
49044;BME280;34860;48.066;14.124;2023-05-27T06:28:38;97287.00;;;17.77;49.25
49044;BME280;34860;48.066;14.124;2023-05-27T06:31:27;97286.84;;;17.81;49.23
49044;BME280;34860;48.066;14.124;2023-05-27T06:34:18;97285.13;;;17.83;49.33
49044;BME280;34860;48.066;14.124;2023-05-27T06:37:09;97285.75;;;17.87;49.15
49044;BME280;34860;48.066;14.124;2023-05-27T06:39:58;97297.31;;;17.89;49.29
49044;BME280;34860;48.066;14.124;2023-05-27T06:42:52;97291.88;;;17.95;48.89
49044;BME280;34860;48.066;14.124;2023-05-27T06:45:57;97289.34;;;17.97;49.21
49044;BME280;34860;48.066;14.124;2023-05-27T06:49:10;97302.47;;;18.00;49.23
49044;BME280;34860;48.066;14.124;2023-05-27T06:52:04;97295.44;;;18.05;49.00
49044;BME280;34860;48.066;14.124;2023-05-27T06:55:17;97295.56;;;18.10;49.17
49044;BME280;34860;48.066;14.124;2023-05-27T06:58:24;97297.72;;;18.15;49.09
49044;BME280;34860;48.066;14.124;2023-05-27T07:01:20;97303.22;;;18.19;49.00
49044;BME280;34860;48.066;14.124;2023-05-27T07:04:17;97303.81;;;18.23;49.15
49044;BME280;34860;48.066;14.124;2023-05-27T07:07:20;97306.47;;;18.27;48.89
49044;BME280;34860;48.066;14.124;2023-05-27T07:10:08;97294.56;;;18.32;48.95
49044;BME280;34860;48.066;14.124;2023-05-27T07:13:02;97291.59;;;18.36;49.08
49044;BME280;34860;48.066;14.124;2023-05-27T07:16:02;97288.91;;;18.41;49.10
49044;BME280;34860;48.066;14.124;2023-05-27T07:18:53;97296.25;;;18.48;48.89
49044;BME280;34860;48.066;14.124;2023-05-27T07:21:51;97290.72;;;18.54;48.98
49044;BME280;34860;48.066;14.124;2023-05-27T07:24:45;97284.44;;;18.59;48.89
49044;BME280;34860;48.066;14.124;2023-05-27T07:27:41;97299.44;;;18.65;49.00
49044;BME280;34860;48.066;14.124;2023-05-27T07:30:30;97293.47;;;18.72;48.78
49044;BME280;34860;48.066;14.124;2023-05-27T07:33:22;97297.19;;;18.78;48.89
49044;BME280;34860;48.066;14.124;2023-05-27T07:36:11;97290.91;;;18.83;48.95
49044;BME280;34860;48.066;14.124;2023-05-27T07:39:07;97295.44;;;18.90;48.79
49044;BME280;34860;48.066;14.124;2023-05-27T07:42:02;97295.56;;;18.96;48.74
49044;BME280;34860;48.066;14.124;2023-05-27T07:44:53;97293.34;;;19.00;48.74
49044;BME280;34860;48.066;14.124;2023-05-27T07:47:42;97291.59;;;19.02;48.74
49044;BME280;34860;48.066;14.124;2023-05-27T07:50:33;97288.31;;;19.04;48.71
49044;BME280;34860;48.066;14.124;2023-05-27T07:53:28;97278.09;;;19.06;48.87
49044;BME280;34860;48.066;14.124;2023-05-27T07:56:23;97283.59;;;19.10;48.90
49044;BME280;34860;48.066;14.124;2023-05-27T07:59:15;97286.97;;;19.14;48.96
49044;BME280;34860;48.066;14.124;2023-05-27T08:02:08;97286.03;;;19.17;48.70
49044;BME280;34860;48.066;14.124;2023-05-27T08:04:58;97286.16;;;19.23;48.67
49044;BME280;34860;48.066;14.124;2023-05-27T08:08:05;97278.28;;;19.27;48.76
49044;BME280;34860;48.066;14.124;2023-05-27T08:11:08;97276.06;;;19.31;48.65
49044;BME280;34860;48.066;14.124;2023-05-27T08:14:12;97284.13;;;19.38;48.58
49044;BME280;34860;48.066;14.124;2023-05-27T08:17:24;97278.34;;;19.42;48.66
49044;BME280;34860;48.066;14.124;2023-05-27T08:20:35;97281.25;;;19.48;48.46
49044;BME280;34860;48.066;14.124;2023-05-27T08:23:39;97278.56;;;19.53;48.53
49044;BME280;34860;48.066;14.124;2023-05-27T08:27:02;97277.41;;;19.60;48.41
49044;BME280;34860;48.066;14.124;2023-05-27T08:30:01;97272.84;;;19.63;48.44
49044;BME280;34860;48.066;14.124;2023-05-27T08:33:07;97275.47;;;19.66;48.46
49044;BME280;34860;48.066;14.124;2023-05-27T08:36:00;97272.38;;;19.64;48.51
49044;BME280;34860;48.066;14.124;2023-05-27T08:38:54;97279.53;;;19.65;48.44
49044;BME280;34860;48.066;14.124;2023-05-27T08:41:51;97273.13;;;19.65;48.46
49044;BME280;34860;48.066;14.124;2023-05-27T08:44:43;97272.66;;;19.66;48.51
49044;BME280;34860;48.066;14.124;2023-05-27T08:47:33;97270.88;;;19.69;48.44
49044;BME280;34860;48.066;14.124;2023-05-27T08:50:24;97272.56;;;19.75;48.37
49044;BME280;34860;48.066;14.124;2023-05-27T08:53:17;97273.47;;;19.82;48.28
49044;BME280;34860;48.066;14.124;2023-05-27T08:56:11;97266.69;;;19.88;48.22
49044;BME280;34860;48.066;14.124;2023-05-27T08:59:05;97273.97;;;19.95;48.17
49044;BME280;34860;48.066;14.124;2023-05-27T09:01:56;97267.16;;;20.02;48.13
49044;BME280;34860;48.066;14.124;2023-05-27T09:04:47;97271.63;;;20.08;47.95
49044;BME280;34860;48.066;14.124;2023-05-27T09:07:43;97269.59;;;20.09;48.09
49044;BME280;34860;48.066;14.124;2023-05-27T09:10:36;97268.31;;;20.10;48.13
49044;BME280;34860;48.066;14.124;2023-05-27T09:13:26;97266.78;;;20.09;48.26
49044;BME280;34860;48.066;14.124;2023-05-27T09:16:20;97259.28;;;20.06;48.18
49044;BME280;34860;48.066;14.124;2023-05-27T09:19:16;97262.28;;;20.02;48.16
49044;BME280;34860;48.066;14.124;2023-05-27T09:22:04;97259.66;;;19.99;48.24
49044;BME280;34860;48.066;14.124;2023-05-27T09:25:00;97254.22;;;19.95;48.16
49044;BME280;34860;48.066;14.124;2023-05-27T09:27:56;97251.13;;;19.93;48.21
49044;BME280;34860;48.066;14.124;2023-05-27T09:30:51;97241.84;;;19.92;48.30
49044;BME280;34860;48.066;14.124;2023-05-27T09:33:40;97249.84;;;19.94;48.15
49044;BME280;34860;48.066;14.124;2023-05-27T09:36:32;97244.50;;;19.96;48.16
49044;BME280;34860;48.066;14.124;2023-05-27T09:39:22;97241.47;;;20.00;48.08
49044;BME280;34860;48.066;14.124;2023-05-27T09:42:15;97241.56;;;20.05;48.17
49044;BME280;34860;48.066;14.124;2023-05-27T09:45:12;97244.00;;;20.12;47.86
49044;BME280;34860;48.066;14.124;2023-05-27T09:48:01;97244.06;;;20.18;47.84
49044;BME280;34860;48.066;14.124;2023-05-27T09:50:52;97242.44;;;20.26;47.65
49044;BME280;34860;48.066;14.124;2023-05-27T09:53:42;97241.53;;;20.35;47.76
49044;BME280;34860;48.066;14.124;2023-05-27T09:56:33;97242.19;;;20.45;47.56
49044;BME280;34860;48.066;14.124;2023-05-27T09:59:24;97237.41;;;20.51;47.44
49044;BME280;34860;48.066;14.124;2023-05-27T10:02:20;97241.38;;;20.59;47.50
49044;BME280;34860;48.066;14.124;2023-05-27T10:05:11;97235.84;;;20.65;47.39
49044;BME280;34860;48.066;14.124;2023-05-27T10:08:04;97247.81;;;20.75;47.48
49044;BME280;34860;48.066;14.124;2023-05-27T10:10:58;97234.22;;;20.79;47.52
49044;BME280;34860;48.066;14.124;2023-05-27T10:13:47;97235.88;;;20.85;47.23
49044;BME280;34860;48.066;14.124;2023-05-27T10:16:50;97229.53;;;20.91;47.24
49044;BME280;34860;48.066;14.124;2023-05-27T10:19:53;97228.31;;;20.97;47.21
49044;BME280;34860;48.066;14.124;2023-05-27T10:22:46;97229.19;;;21.03;47.10
49044;BME280;34860;48.066;14.124;2023-05-27T10:25:36;97224.66;;;21.12;47.01
49044;BME280;34860;48.066;14.124;2023-05-27T10:28:27;97227.84;;;21.19;47.10
49044;BME280;34860;48.066;14.124;2023-05-27T10:31:19;97222.53;;;21.27;46.93
49044;BME280;34860;48.066;14.124;2023-05-27T10:34:10;97212.84;;;21.34;47.06
49044;BME280;34860;48.066;14.124;2023-05-27T10:37:00;97230.41;;;21.44;46.81
49044;BME280;34860;48.066;14.124;2023-05-27T10:39:55;97214.09;;;21.53;46.90
49044;BME280;34860;48.066;14.124;2023-05-27T10:42:46;97213.66;;;21.61;46.83
49044;BME280;34860;48.066;14.124;2023-05-27T10:45:34;97216.59;;;21.72;46.72
49044;BME280;34860;48.066;14.124;2023-05-27T10:48:27;97202.28;;;21.81;46.66
49044;BME280;34860;48.066;14.124;2023-05-27T10:51:19;97202.91;;;21.91;46.60
49044;BME280;34860;48.066;14.124;2023-05-27T10:54:10;97199.59;;;21.98;46.54
49044;BME280;34860;48.066;14.124;2023-05-27T10:57:14;97197.09;;;22.06;46.41
49044;BME280;34860;48.066;14.124;2023-05-27T11:00:07;97202.31;;;22.13;46.55
49044;BME280;34860;48.066;14.124;2023-05-27T11:02:57;97196.69;;;22.19;46.54
49044;BME280;34860;48.066;14.124;2023-05-27T11:05:59;97200.84;;;22.23;46.50
49044;BME280;34860;48.066;14.124;2023-05-27T11:08:56;97196.78;;;22.30;46.58
49044;BME280;34860;48.066;14.124;2023-05-27T11:11:45;97198.09;;;22.35;46.47
49044;BME280;34860;48.066;14.124;2023-05-27T11:14:36;97183.00;;;22.43;46.36
49044;BME280;34860;48.066;14.124;2023-05-27T11:17:24;97188.72;;;22.55;46.38
49044;BME280;34860;48.066;14.124;2023-05-27T11:20:15;97191.88;;;22.68;46.29
49044;BME280;34860;48.066;14.124;2023-05-27T11:23:05;97179.28;;;22.75;46.30
49044;BME280;34860;48.066;14.124;2023-05-27T11:25:57;97183.97;;;22.83;46.25
49044;BME280;34860;48.066;14.124;2023-05-27T11:28:50;97169.06;;;22.94;46.00
49044;BME280;34860;48.066;14.124;2023-05-27T11:31:41;97177.94;;;23.08;46.01
49044;BME280;34860;48.066;14.124;2023-05-27T11:34:35;97169.44;;;23.19;46.04
49044;BME280;34860;48.066;14.124;2023-05-27T11:37:31;97162.25;;;23.29;46.05
49044;BME280;34860;48.066;14.124;2023-05-27T11:40:21;97169.50;;;23.42;45.72
49044;BME280;34860;48.066;14.124;2023-05-27T11:43:17;97161.28;;;23.55;45.87
49044;BME280;34860;48.066;14.124;2023-05-27T11:46:10;97161.06;;;23.70;45.64
49044;BME280;34860;48.066;14.124;2023-05-27T11:48:59;97160.81;;;23.85;45.58
49044;BME280;34860;48.066;14.124;2023-05-27T11:51:50;97148.44;;;23.99;45.66
49044;BME280;34860;48.066;14.124;2023-05-27T11:54:41;97154.09;;;24.16;45.36
49044;BME280;34860;48.066;14.124;2023-05-27T11:57:32;97158.72;;;24.36;45.32
49044;BME280;34860;48.066;14.124;2023-05-27T12:00:27;97143.44;;;24.51;45.29
49044;BME280;34860;48.066;14.124;2023-05-27T12:03:19;97149.88;;;24.68;45.37
49044;BME280;34860;48.066;14.124;2023-05-27T12:06:09;97143.63;;;24.87;45.15
49044;BME280;34860;48.066;14.124;2023-05-27T12:09:01;97139.41;;;25.05;45.09
49044;BME280;34860;48.066;14.124;2023-05-27T12:11:51;97139.34;;;25.22;44.86
49044;BME280;34860;48.066;14.124;2023-05-27T12:14:41;97137.94;;;25.40;44.96
49044;BME280;34860;48.066;14.124;2023-05-27T12:17:32;97132.41;;;25.59;45.12
49044;BME280;34860;48.066;14.124;2023-05-27T12:20:25;97125.53;;;25.79;44.89
49044;BME280;34860;48.066;14.124;2023-05-27T12:23:16;97125.91;;;26.00;44.86
49044;BME280;34860;48.066;14.124;2023-05-27T12:26:08;97130.34;;;26.20;44.50
49044;BME280;34860;48.066;14.124;2023-05-27T12:29:00;97131.44;;;26.41;44.57
49044;BME280;34860;48.066;14.124;2023-05-27T12:31:52;97121.66;;;26.61;44.07
49044;BME280;34860;48.066;14.124;2023-05-27T12:34:49;97116.69;;;26.87;44.32
49044;BME280;34860;48.066;14.124;2023-05-27T12:37:38;97114.13;;;27.08;44.27
49044;BME280;34860;48.066;14.124;2023-05-27T12:40:30;97115.88;;;27.30;44.05
49044;BME280;34860;48.066;14.124;2023-05-27T12:43:23;97106.00;;;27.50;43.81
49044;BME280;34860;48.066;14.124;2023-05-27T12:46:11;97101.81;;;27.70;43.58
49044;BME280;34860;48.066;14.124;2023-05-27T12:49:01;97111.31;;;27.91;43.60
49044;BME280;34860;48.066;14.124;2023-05-27T12:51:55;97098.00;;;28.13;43.54
49044;BME280;34860;48.066;14.124;2023-05-27T12:54:44;97106.16;;;28.36;43.59
49044;BME280;34860;48.066;14.124;2023-05-27T12:57:37;97096.94;;;28.56;43.65
49044;BME280;34860;48.066;14.124;2023-05-27T13:00:28;97100.47;;;28.76;43.25
49044;BME280;34860;48.066;14.124;2023-05-27T13:03:18;97092.50;;;28.95;43.39
49044;BME280;34860;48.066;14.124;2023-05-27T13:06:09;97090.59;;;29.11;43.22
49044;BME280;34860;48.066;14.124;2023-05-27T13:09:04;97092.56;;;29.30;43.14
49044;BME280;34860;48.066;14.124;2023-05-27T13:11:52;97093.16;;;29.49;43.03
49044;BME280;34860;48.066;14.124;2023-05-27T13:14:41;97091.41;;;29.67;42.82
49044;BME280;34860;48.066;14.124;2023-05-27T13:17:34;97082.25;;;29.82;42.91
49044;BME280;34860;48.066;14.124;2023-05-27T13:20:24;97069.38;;;29.97;42.85
49044;BME280;34860;48.066;14.124;2023-05-27T13:23:15;97068.72;;;30.12;42.77
49044;BME280;34860;48.066;14.124;2023-05-27T13:26:05;97058.88;;;30.28;42.76
49044;BME280;34860;48.066;14.124;2023-05-27T13:28:56;97056.91;;;30.44;42.53
49044;BME280;34860;48.066;14.124;2023-05-27T13:31:49;97059.88;;;30.59;42.75
49044;BME280;34860;48.066;14.124;2023-05-27T13:34:37;97058.41;;;30.74;42.44
49044;BME280;34860;48.066;14.124;2023-05-27T13:37:31;97043.34;;;30.89;42.36
49044;BME280;34860;48.066;14.124;2023-05-27T13:40:19;97043.66;;;31.06;42.36
49044;BME280;34860;48.066;14.124;2023-05-27T13:43:11;97035.09;;;31.22;42.15
49044;BME280;34860;48.066;14.124;2023-05-27T13:46:02;97042.38;;;31.38;42.08
49044;BME280;34860;48.066;14.124;2023-05-27T13:48:51;97033.63;;;31.51;42.03
49044;BME280;34860;48.066;14.124;2023-05-27T13:51:46;97031.72;;;31.62;41.96
49044;BME280;34860;48.066;14.124;2023-05-27T13:54:36;97035.59;;;31.72;41.68
49044;BME280;34860;48.066;14.124;2023-05-27T13:57:26;97030.97;;;31.84;41.49
49044;BME280;34860;48.066;14.124;2023-05-27T14:00:25;97026.75;;;32.01;41.33
49044;BME280;34860;48.066;14.124;2023-05-27T14:03:13;97023.31;;;32.10;41.36
49044;BME280;34860;48.066;14.124;2023-05-27T14:06:09;97023.13;;;32.23;41.57
49044;BME280;34860;48.066;14.124;2023-05-27T14:08:58;97021.16;;;32.34;41.06
49044;BME280;34860;48.066;14.124;2023-05-27T14:11:46;97013.47;;;32.44;40.98
49044;BME280;34860;48.066;14.124;2023-05-27T14:14:36;97009.81;;;32.51;41.11
49044;BME280;34860;48.066;14.124;2023-05-27T14:17:28;97004.19;;;32.61;41.01
49044;BME280;34860;48.066;14.124;2023-05-27T14:20:24;97014.19;;;32.68;40.98
49044;BME280;34860;48.066;14.124;2023-05-27T14:23:17;97006.31;;;32.76;40.61
49044;BME280;34860;48.066;14.124;2023-05-27T14:26:09;97007.22;;;32.86;40.75
49044;BME280;34860;48.066;14.124;2023-05-27T14:28:58;97001.41;;;32.94;40.60
49044;BME280;34860;48.066;14.124;2023-05-27T14:31:48;97004.84;;;33.00;40.60
49044;BME280;34860;48.066;14.124;2023-05-27T14:34:39;96992.34;;;33.05;40.13
49044;BME280;34860;48.066;14.124;2023-05-27T14:37:31;96999.06;;;33.08;40.30
49044;BME280;34860;48.066;14.124;2023-05-27T14:40:23;96991.53;;;33.12;40.00
49044;BME280;34860;48.066;14.124;2023-05-27T14:43:13;96988.63;;;33.20;40.03
49044;BME280;34860;48.066;14.124;2023-05-27T14:46:01;96982.06;;;33.27;39.81
49044;BME280;34860;48.066;14.124;2023-05-27T14:48:54;96982.59;;;33.34;39.57
49044;BME280;34860;48.066;14.124;2023-05-27T14:51:50;96978.53;;;33.37;39.55
49044;BME280;34860;48.066;14.124;2023-05-27T14:54:43;96981.81;;;33.33;39.92
49044;BME280;34860;48.066;14.124;2023-05-27T14:57:32;96981.06;;;33.33;39.56
49044;BME280;34860;48.066;14.124;2023-05-27T15:00:27;96969.94;;;33.29;39.45
49044;BME280;34860;48.066;14.124;2023-05-27T15:03:15;96971.69;;;33.24;39.88